Time;durP1;ratioP1;P1;durP2;ratioP2;P2;SDS_P1;SDS_P2;PMS_P1;PMS_P2;Temp;Humidity;BMP_temperature;BMP_pressure;BME280_temperature;BME280_humidity;BME280_pressure;Samples;Min_cycle;Max_cycle;Signal;HPM_P1;HPM_P2
2022/01/14 00:02:18;;;;;;;;;60.00;47.00;;;;;5.48;64.12;103280.31;5043678;28;45381;-48
2022/01/14 00:04:44;;;;;;;;;54.50;46.75;;;;;5.43;64.08;103266.16;5030228;28;47804;-53
2022/01/14 00:07:10;;;;;;;;;60.75;47.25;;;;;5.46;64.16;103274.16;5045151;28;45460;-49
2022/01/14 00:09:38;;;;;;;;;61.00;48.00;;;;;5.44;64.23;103267.97;5046694;28;45139;-52
2022/01/14 00:12:10;;;;;;;;;63.25;47.75;;;;;5.43;63.78;103265.28;5044740;28;45425;-51
2022/01/14 00:17:12;;;;;;;;;62.75;48.25;;;;;5.40;64.08;103260.81;5058818;28;45332;-52
2022/01/14 00:19:39;;;;;;;;;61.00;50.00;;;;;5.42;64.13;103258.28;5044256;28;45380;-54
2022/01/14 00:22:10;;;;;;;;;64.00;48.75;;;;;5.40;64.30;103252.13;5029328;28;45884;-50
2022/01/14 00:35:21;;;;;;;;;64.75;54.00;;;;;5.37;64.15;103252.84;5041287;28;45281;-52
2022/01/14 00:37:47;;;;;;;;;67.50;51.50;;;;;5.37;64.02;103250.22;5042615;28;45396;-50
2022/01/14 00:40:13;;;;;;;;;65.25;53.75;;;;;5.33;64.14;103248.31;5044227;28;45328;-52
2022/01/14 00:42:39;;;;;;;;;63.25;51.00;;;;;5.37;64.12;103264.19;5035854;28;45480;-53
2022/01/14 00:45:07;;;;;;;;;63.00;48.00;;;;;5.36;64.25;103257.19;5019801;28;47448;-52
2022/01/14 00:47:34;;;;;;;;;62.75;49.50;;;;;5.35;64.05;103263.22;5039899;28;45340;-51
2022/01/14 00:50:00;;;;;;;;;66.50;50.50;;;;;5.34;63.98;103245.75;5055925;28;45433;-51
2022/01/14 00:52:26;;;;;;;;;65.75;51.50;;;;;5.34;64.01;103250.09;5050776;28;45312;-53
2022/01/14 00:54:52;;;;;;;;;60.75;47.50;;;;;5.32;64.48;103251.72;5039633;28;47325;-51
2022/01/14 00:57:29;;;;;;;;;66.50;50.75;;;;;5.31;64.14;103250.84;5033698;28;45451;-49
2022/01/14 00:59:54;;;;;;;;;61.75;50.75;;;;;5.29;64.02;103249.88;5050539;28;45333;-52
2022/01/14 01:02:20;;;;;;;;;62.25;51.75;;;;;5.30;64.02;103246.44;5031813;28;45186;-49
2022/01/14 01:04:45;;;;;;;;;60.75;49.50;;;;;5.28;64.32;103248.13;5049635;28;45627;-51
2022/01/14 01:07:12;;;;;;;;;61.00;48.00;;;;;5.28;64.25;103248.13;5038313;28;45449;-52
2022/01/14 01:09:41;;;;;;;;;60.75;46.75;;;;;5.27;64.01;103248.94;5046536;28;45310;-52
2022/01/14 01:12:31;;;;;;;;;69.00;51.25;;;;;5.29;64.28;103256.81;5049236;28;45475;-50
2022/01/14 01:15:05;;;;;;;;;57.25;46.25;;;;;5.25;64.24;103257.50;5048476;28;46942;-48
2022/01/14 01:17:33;;;;;;;;;58.25;48.50;;;;;5.27;64.33;103263.66;5039042;28;45480;-50
2022/01/14 01:19:58;;;;;;;;;62.00;49.50;;;;;5.27;64.34;103261.06;5037931;28;45501;-53
2022/01/14 01:22:25;;;;;;;;;56.75;47.25;;;;;5.26;64.14;103265.38;5037765;28;45536;-50
2022/01/14 01:24:50;;;;;;;;;64.25;50.75;;;;;5.28;64.11;103262.84;5040015;28;46436;-50
2022/01/14 01:27:18;;;;;;;;;62.50;49.50;;;;;5.26;64.32;103261.88;5039928;28;45277;-51
2022/01/14 01:29:50;;;;;;;;;61.75;47.50;;;;;5.28;64.17;103260.25;5039232;28;45253;-49
2022/01/14 01:32:15;;;;;;;;;65.25;49.00;;;;;5.27;64.14;103264.56;5047705;28;45332;-50
2022/01/14 01:34:41;;;;;;;;;62.75;48.25;;;;;5.28;64.13;103260.25;5046455;28;45358;-49
2022/01/14 01:37:06;;;;;;;;;59.75;47.25;;;;;5.26;64.25;103252.34;5029878;28;45395;-51
2022/01/14 01:39:34;;;;;;;;;69.25;55.25;;;;;5.28;64.12;103255.03;5059514;28;45386;-52
2022/01/14 01:42:05;;;;;;;;;64.50;49.75;;;;;5.27;64.08;103253.22;5022232;28;45257;-53
2022/01/14 01:44:31;;;;;;;;;55.25;46.50;;;;;5.24;64.35;103253.09;5068545;28;46320;-51
2022/01/14 01:46:57;;;;;;;;;71.00;52.00;;;;;5.26;64.13;103254.03;5051928;28;45367;-50
2022/01/14 01:49:32;;;;;;;;;60.00;49.00;;;;;5.26;64.26;103259.25;5031107;28;45369;-52
2022/01/14 01:51:58;;;;;;;;;65.25;52.00;;;;;5.25;64.29;103257.50;5056681;28;45423;-50
2022/01/14 01:54:25;;;;;;;;;66.75;51.75;;;;;5.17;64.25;103247.59;5058616;28;45355;-48
2022/01/14 01:56:50;;;;;;;;;64.25;51.00;;;;;5.21;63.96;103252.13;5059251;28;45211;-51
2022/01/14 01:59:17;;;;;;;;;70.75;54.50;;;;;5.23;64.19;103259.13;5046324;28;45284;-52
2022/01/14 02:01:43;;;;;;;;;65.75;52.25;;;;;5.21;64.16;103259.94;5056483;28;45899;-51
2022/01/14 02:04:09;;;;;;;;;65.00;48.25;;;;;5.19;64.00;103250.25;5058079;28;45318;-50
2022/01/14 02:06:37;;;;;;;;;68.00;53.00;;;;;5.18;64.18;103251.97;5058222;28;45295;-48
2022/01/14 02:09:03;;;;;;;;;67.00;52.75;;;;;5.18;64.34;103253.69;5059001;28;45348;-51
2022/01/14 02:11:29;;;;;;;;;67.50;52.25;;;;;5.17;64.15;103247.59;5055857;28;45880;-49
2022/01/14 02:13:57;;;;;;;;;63.25;50.50;;;;;5.16;64.16;103245.78;5056598;28;48076;-51
2022/01/14 02:16:34;;;;;;;;;61.00;48.75;;;;;5.17;64.36;103244.06;5065144;28;45445;-50
2022/01/14 02:19:22;;;;;;;;;68.75;53.75;;;;;5.16;64.37;103243.19;5059027;28;45323;-52
2022/01/14 02:24:55;;;;;;;;;67.50;54.25;;;;;5.13;64.22;103232.63;5047436;28;45411;-52
2022/01/14 02:27:19;;;;;;;;;69.75;51.25;;;;;5.12;64.16;103225.63;5049980;28;45456;-49
2022/01/14 02:29:45;;;;;;;;;70.75;54.50;;;;;5.12;64.22;103222.09;5066744;28;45375;-49
2022/01/14 02:32:10;;;;;;;;;70.75;54.25;;;;;5.11;64.22;103233.38;5073046;28;45543;-50
2022/01/14 02:34:39;;;;;;;;;67.50;53.25;;;;;5.10;64.05;103231.56;5045945;28;46080;-50
2022/01/14 02:37:05;;;;;;;;;67.25;53.75;;;;;5.09;64.27;103228.06;5039562;28;45460;-50
2022/01/14 02:39:31;;;;;;;;;69.75;55.50;;;;;5.08;63.98;103225.38;5039147;28;45334;-52
2022/01/14 02:41:56;;;;;;;;;70.25;53.50;;;;;5.07;64.33;103214.09;5039220;28;45309;-52
2022/01/14 02:44:27;;;;;;;;;64.25;49.25;;;;;5.07;64.16;103221.91;5039485;28;45365;-52
2022/01/14 02:46:57;;;;;;;;;69.25;54.50;;;;;5.06;64.32;103217.50;5039351;28;45274;-47
2022/01/14 02:49:27;;;;;;;;;73.25;55.50;;;;;5.05;64.60;103211.38;5048314;28;45702;-50
2022/01/14 02:51:53;;;;;;;;;64.50;53.75;;;;;5.04;64.20;103203.50;5050126;28;45212;-53
2022/01/14 02:54:24;;;;;;;;;70.25;55.50;;;;;5.03;64.41;103202.59;5021070;28;47126;-51
2022/01/14 02:56:53;;;;;;;;;64.25;54.25;;;;;5.03;64.04;103193.88;5039130;28;45456;-51
2022/01/14 02:59:21;;;;;;;;;66.75;53.75;;;;;5.00;64.24;103185.94;5034509;28;45446;-53
2022/01/14 03:01:50;;;;;;;;;69.00;56.00;;;;;4.97;64.08;103184.06;5021499;28;45497;-49
2022/01/14 03:04:17;;;;;;;;;69.50;54.00;;;;;4.95;64.48;103188.31;5038880;28;45363;-51
2022/01/14 03:06:43;;;;;;;;;71.00;55.25;;;;;4.96;64.25;103194.44;5034366;28;45359;-53
2022/01/14 03:09:09;;;;;;;;;66.00;53.50;;;;;4.96;64.45;103197.03;5020647;28;45476;-50
2022/01/14 03:11:37;;;;;;;;;76.00;56.00;;;;;4.95;64.33;103195.25;5028961;28;45367;-53
2022/01/14 03:14:03;;;;;;;;;73.50;55.75;;;;;4.92;64.26;103185.56;5017710;28;46223;-51
2022/01/14 03:16:31;;;;;;;;;57.00;42.50;;;;;4.92;64.19;103182.97;5028896;28;45326;-52
2022/01/14 03:19:06;;;;;;;;;69.25;55.00;;;;;4.92;64.26;103184.66;5029451;28;45416;-52
2022/01/14 03:21:37;;;;;;;;;69.25;54.25;;;;;4.92;63.76;103188.16;5050437;28;45189;-48
2022/01/14 03:24:15;;;;;;;;;67.25;55.00;;;;;4.93;64.29;103183.84;5022655;28;45607;-53
2022/01/14 03:26:41;;;;;;;;;69.25;54.00;;;;;4.92;64.01;103175.13;5022112;28;45231;-53
2022/01/14 03:29:06;;;;;;;;;69.75;55.25;;;;;4.91;64.20;103172.47;5022501;28;45272;-52
2022/01/14 03:31:31;;;;;;;;;74.25;57.25;;;;;4.91;64.10;103175.94;5022104;28;45277;-50
2022/01/14 03:33:57;;;;;;;;;69.50;53.50;;;;;4.90;64.33;103173.28;5022487;28;45317;-51
2022/01/14 03:36:22;;;;;;;;;74.75;56.50;;;;;4.89;64.00;103169.75;5022189;28;45163;-51
2022/01/14 03:38:48;;;;;;;;;70.00;54.00;;;;;4.86;64.30;103164.41;5022382;28;45480;-53
2022/01/14 03:41:13;;;;;;;;;68.50;54.75;;;;;4.88;64.17;103171.50;5021867;28;45296;-53
2022/01/14 03:43:40;;;;;;;;;66.75;54.00;;;;;4.87;64.17;103169.69;5022296;28;45345;-50
2022/01/14 03:46:06;;;;;;;;;62.25;51.00;;;;;4.90;64.12;103173.28;5022124;28;45418;-53
2022/01/14 03:48:31;;;;;;;;;62.75;51.25;;;;;4.89;64.21;103174.97;5036553;28;45320;-47
2022/01/14 03:50:57;;;;;;;;;69.25;54.50;;;;;4.88;64.29;103174.09;5040484;28;45332;-49
2022/01/14 03:53:22;;;;;;;;;53.75;43.00;;;;;4.90;64.16;103162.84;5021933;28;45374;-50
2022/01/14 03:55:48;;;;;;;;;66.75;50.00;;;;;4.88;64.16;103166.28;5021610;28;45182;-50
2022/01/14 03:58:13;;;;;;;;;68.75;54.00;;;;;4.87;64.10;103167.09;5028715;28;45258;-53
2022/01/14 04:00:39;;;;;;;;;68.50;53.75;;;;;4.87;64.25;103164.47;5040687;28;45386;-50
2022/01/14 04:03:05;;;;;;;;;71.00;54.00;;;;;4.85;64.39;103163.50;5022003;28;46132;-53
2022/01/14 04:05:31;;;;;;;;;69.75;54.75;;;;;4.86;64.29;103159.22;5049535;28;45238;-51
2022/01/14 04:07:57;;;;;;;;;66.25;52.75;;;;;4.84;63.97;103159.13;5051024;28;45262;-51
2022/01/14 04:10:25;;;;;;;;;70.25;52.00;;;;;4.86;64.23;103169.63;5054467;28;45574;-52
2022/01/14 04:13:01;;;;;;;;;66.75;53.75;;;;;4.85;64.27;103165.22;5048537;28;46245;-52
2022/01/14 04:15:44;;;;;;;;;69.50;51.75;;;;;4.81;64.08;103166.78;5048793;28;45281;-51
2022/01/14 04:18:19;;;;;;;;;62.25;50.25;;;;;4.84;63.96;103168.66;5047882;28;45504;-51
2022/01/14 04:20:47;;;;;;;;;64.50;51.50;;;;;4.79;64.03;103155.44;5054821;28;45280;-51
2022/01/14 04:23:15;;;;;;;;;65.75;53.50;;;;;4.81;64.15;103152.88;5040035;28;45381;-51
2022/01/14 04:25:41;;;;;;;;;69.25;54.00;;;;;4.81;64.02;103155.50;5040952;28;45518;-50
2022/01/14 04:28:08;;;;;;;;;67.00;53.25;;;;;4.80;64.23;103165.00;5041612;28;45217;-52
2022/01/14 04:30:34;;;;;;;;;71.00;53.75;;;;;4.76;64.31;103150.03;5040713;28;45572;-52
2022/01/14 04:33:00;;;;;;;;;68.25;53.50;;;;;4.80;64.06;103159.78;5039902;28;46845;-52
2022/01/14 04:35:26;;;;;;;;;69.50;52.75;;;;;4.78;64.13;103156.25;5041128;28;45301;-52
2022/01/14 04:37:52;;;;;;;;;71.25;57.50;;;;;4.77;64.28;103151.84;5041412;28;45724;-52
2022/01/14 04:40:17;;;;;;;;;66.75;54.00;;;;;4.76;64.32;103139.63;5022814;28;45441;-52
2022/01/14 04:42:43;;;;;;;;;67.00;53.50;;;;;4.75;64.20;103137.84;5041239;28;45472;-50
2022/01/14 04:45:14;;;;;;;;;64.25;50.25;;;;;4.75;64.11;103132.63;5047978;28;45233;-47
2022/01/14 04:47:45;;;;;;;;;69.75;54.25;;;;;4.75;64.22;103132.63;5046911;28;45441;-50
2022/01/14 04:50:13;;;;;;;;;65.75;51.25;;;;;4.75;64.25;103134.34;5056703;28;45353;-52
2022/01/14 04:52:40;;;;;;;;;66.25;53.00;;;;;4.74;64.13;103132.56;5045487;28;46295;-52
2022/01/14 04:55:07;;;;;;;;;59.75;45.00;;;;;4.74;64.33;103129.94;5040594;28;45278;-49
2022/01/14 04:57:32;;;;;;;;;68.00;54.00;;;;;4.73;64.21;103139.50;5040883;28;45301;-49
2022/01/14 04:59:58;;;;;;;;;62.75;50.25;;;;;4.72;64.27;103137.69;5041000;28;45231;-49
2022/01/14 05:02:24;;;;;;;;;62.25;48.50;;;;;4.71;64.41;103133.31;5040756;28;45289;-50
2022/01/14 05:04:49;;;;;;;;;66.75;50.75;;;;;4.70;63.97;103134.13;5040818;28;45416;-53
2022/01/14 05:07:24;;;;;;;;;60.00;47.25;;;;;4.68;64.07;103131.44;5040611;28;45439;-49
2022/01/14 05:09:59;;;;;;;;;61.75;50.25;;;;;4.67;64.25;103134.88;5049250;28;45430;-51
2022/01/14 05:12:24;;;;;;;;;70.25;54.00;;;;;4.67;64.22;103134.88;5043902;28;46247;-51
2022/01/14 05:14:50;;;;;;;;;62.25;49.50;;;;;4.67;64.35;103128.78;5040745;28;45238;-48
2022/01/14 05:17:15;;;;;;;;;67.00;51.00;;;;;4.67;64.42;103131.38;5054576;28;45474;-50
2022/01/14 05:19:40;;;;;;;;;65.25;52.00;;;;;4.66;64.24;103140.00;5040469;28;45569;-51
2022/01/14 05:22:06;;;;;;;;;61.25;46.75;;;;;4.65;64.02;103136.50;5070163;28;46956;-50
2022/01/14 05:24:31;;;;;;;;;67.00;50.00;;;;;4.64;64.22;103137.34;5054857;28;46002;-49
2022/01/14 05:26:56;;;;;;;;;68.00;54.25;;;;;4.65;64.35;103136.50;5059311;28;45535;-49
2022/01/14 05:29:22;;;;;;;;;63.50;49.00;;;;;4.65;63.98;103136.50;5059594;28;45429;-51
2022/01/14 05:31:52;;;;;;;;;69.50;53.00;;;;;4.65;64.18;103133.00;5059191;28;46270;-52
2022/01/14 05:34:18;;;;;;;;;63.00;48.25;;;;;4.67;64.28;103133.97;5059609;28;45427;-50
2022/01/14 05:36:44;;;;;;;;;61.75;51.25;;;;;4.65;64.26;103146.03;5059346;28;45297;-51
2022/01/14 05:39:10;;;;;;;;;63.00;50.25;;;;;4.64;64.18;103139.03;5059403;28;45848;-51
2022/01/14 05:41:36;;;;;;;;;71.50;54.50;;;;;4.63;64.18;103142.44;5058114;28;47647;-53
2022/01/14 05:44:02;;;;;;;;;65.00;50.75;;;;;4.62;64.05;103149.38;5059486;28;45243;-53
2022/01/14 05:46:28;;;;;;;;;58.50;47.50;;;;;4.62;64.23;103151.09;5059642;28;45182;-52
2022/01/14 05:48:53;;;;;;;;;63.75;49.00;;;;;4.61;64.03;103162.34;5054488;28;45435;-51
2022/01/14 05:51:19;;;;;;;;;29.75;28.50;;;;;4.60;64.09;103152.72;5058433;28;45286;-51
2022/01/14 05:53:44;;;;;;;;;62.75;49.75;;;;;4.56;64.37;103165.56;5058788;28;45419;-53
2022/01/14 05:56:10;;;;;;;;;45.00;40.25;;;;;4.59;64.29;103163.97;5054009;28;46071;-54
2022/01/14 05:58:35;;;;;;;;;55.00;44.50;;;;;4.59;64.21;103162.25;5039242;28;45506;-51
2022/01/14 06:01:00;;;;;;;;;61.00;50.00;;;;;4.59;64.19;103164.88;5038581;28;46025;-50
2022/01/14 06:03:26;;;;;;;;;66.25;51.00;;;;;4.59;64.12;103161.34;5039940;28;45342;-48
2022/01/14 06:05:51;;;;;;;;;61.50;48.00;;;;;4.56;64.04;103155.16;5040032;28;45396;-47
2022/01/14 06:08:16;;;;;;;;;58.00;45.75;;;;;4.56;64.46;103168.19;5039813;28;45316;-51
2022/01/14 06:10:42;;;;;;;;;61.75;49.25;;;;;4.53;64.40;103151.53;5052814;28;45308;-48
2022/01/14 06:13:07;;;;;;;;;56.50;44.75;;;;;4.54;64.28;103154.22;5039929;28;45308;-48
2022/01/14 06:15:32;;;;;;;;;59.75;46.25;;;;;4.55;64.43;103157.69;5043043;28;45718;-52
2022/01/14 06:17:58;;;;;;;;;60.00;48.00;;;;;4.53;64.29;103149.81;5050643;28;45657;-52
2022/01/14 06:20:23;;;;;;;;;68.00;49.25;;;;;4.53;64.55;103147.22;5039370;28;46371;-49
2022/01/14 06:22:49;;;;;;;;;60.00;48.75;;;;;4.54;64.06;103150.69;5039722;28;45275;-49
2022/01/14 06:25:15;;;;;;;;;65.25;50.50;;;;;4.53;64.11;103149.81;5039491;28;45222;-51
2022/01/14 06:27:40;;;;;;;;;60.25;49.50;;;;;4.53;64.30;103146.34;5039738;28;45253;-52
2022/01/14 06:30:07;;;;;;;;;60.00;48.25;;;;;4.50;64.46;103144.47;5039237;28;46207;-52
2022/01/14 06:32:35;;;;;;;;;69.75;54.75;;;;;4.53;64.27;103149.81;5047349;28;45391;-48
2022/01/14 06:35:01;;;;;;;;;64.00;52.00;;;;;4.50;64.20;103141.88;5038002;28;45450;-52
2022/01/14 06:37:26;;;;;;;;;63.50;51.25;;;;;4.52;64.31;103142.81;5038410;28;45478;-51
2022/01/14 06:39:53;;;;;;;;;68.50;54.00;;;;;4.53;64.02;103146.34;5052530;28;47008;-51
2022/01/14 06:42:18;;;;;;;;;75.25;57.50;;;;;4.52;64.32;103141.94;5038900;28;45473;-50
2022/01/14 06:44:43;;;;;;;;;72.75;54.00;;;;;4.52;64.05;103149.75;5020072;28;45479;-50
2022/01/14 06:47:09;;;;;;;;;70.25;57.25;;;;;4.51;64.44;103146.22;5039044;28;45421;-48
2022/01/14 06:49:34;;;;;;;;;69.00;54.00;;;;;4.52;64.30;103154.97;5049454;28;46537;-51
2022/01/14 06:52:00;;;;;;;;;65.50;53.00;;;;;4.52;64.20;103149.75;5048924;28;45305;-51
2022/01/14 06:54:25;;;;;;;;;67.75;54.25;;;;;4.42;64.18;103131.91;5024522;28;45516;-48
2022/01/14 06:56:50;;;;;;;;;64.75;51.50;;;;;4.52;64.21;103149.75;5042365;28;45299;-49
2022/01/14 06:59:16;;;;;;;;;65.00;54.25;;;;;4.51;64.23;103148.84;5042499;28;45392;-52
2022/01/14 07:01:41;;;;;;;;;68.00;51.00;;;;;4.51;64.47;103141.03;5042636;28;45257;-49
2022/01/14 07:04:07;;;;;;;;;66.00;53.75;;;;;4.48;64.56;103142.63;5042677;28;45265;-46
2022/01/14 07:06:32;;;;;;;;;64.50;52.75;;;;;4.50;64.37;103144.47;5042276;28;45479;-51
2022/01/14 07:08:58;;;;;;;;;63.25;50.00;;;;;4.50;64.38;103140.97;5043423;28;45791;-49
2022/01/14 07:11:29;;;;;;;;;60.50;50.25;;;;;4.49;63.98;103132.25;5054183;28;45389;-51
2022/01/14 07:13:54;;;;;;;;;62.75;49.50;;;;;4.50;63.98;103136.66;5024577;28;45348;-47
2022/01/14 07:16:19;;;;;;;;;65.00;53.00;;;;;4.49;64.42;103124.44;5052259;28;45241;-49
2022/01/14 07:18:48;;;;;;;;;92.67;70.67;;;;;4.49;64.47;103129.66;5046842;28;45349;-47
2022/01/14 07:21:13;;;;;;;;;70.00;53.25;;;;;4.48;64.26;103127.88;5024530;28;45415;-52
2022/01/14 07:23:38;;;;;;;;;58.25;46.50;;;;;4.48;64.34;103124.38;5042527;28;45403;-49
2022/01/14 07:26:04;;;;;;;;;61.00;50.75;;;;;4.48;64.26;103120.06;5042002;28;45483;-49
2022/01/14 07:28:29;;;;;;;;;68.00;51.00;;;;;4.49;64.25;103118.34;5042155;28;46078;-47
2022/01/14 07:30:54;;;;;;;;;62.50;50.00;;;;;4.48;64.25;103117.44;5048324;28;45466;-46
2022/01/14 07:33:20;;;;;;;;;63.50;48.25;;;;;4.48;64.23;103127.00;5061157;28;45389;-48
2022/01/14 07:35:45;;;;;;;;;57.25;46.25;;;;;4.49;64.13;103132.25;5061009;28;45548;-46
2022/01/14 07:38:10;;;;;;;;;53.50;46.00;;;;;4.49;64.01;103131.34;5060856;28;46999;-49
2022/01/14 07:40:38;;;;;;;;;66.25;52.00;;;;;4.47;64.27;103126.06;5060646;28;45357;-50
2022/01/14 07:43:04;;;;;;;;;61.00;49.75;;;;;4.49;64.44;103121.84;5061366;28;45359;-46
2022/01/14 07:45:29;;;;;;;;;64.25;51.75;;;;;4.47;64.21;103117.38;5063166;28;45502;-49
2022/01/14 07:47:55;;;;;;;;;65.25;51.00;;;;;4.50;64.08;103123.63;5060632;28;46173;-49
2022/01/14 07:50:20;;;;;;;;;61.50;50.75;;;;;4.49;64.18;103129.66;5046481;28;45424;-50
2022/01/14 07:52:45;;;;;;;;;58.50;45.25;;;;;4.49;64.35;103133.97;5053226;28;45246;-46
2022/01/14 07:55:11;;;;;;;;;62.50;51.00;;;;;4.49;64.25;103141.78;5055589;28;45752;-49
2022/01/14 07:57:36;;;;;;;;;66.25;52.50;;;;;4.48;64.53;103143.50;5052079;28;46108;-50
2022/01/14 08:00:05;;;;;;;;;69.00;54.50;;;;;4.49;64.16;103140.06;5060554;28;46365;-51
2022/01/14 08:02:30;;;;;;;;;61.75;49.50;;;;;4.50;64.32;103144.47;5060225;28;45526;-48
2022/01/14 08:04:55;;;;;;;;;61.25;50.75;;;;;4.51;64.50;103141.03;5059660;28;45674;-47
2022/01/14 08:07:23;;;;;;;;;67.00;52.25;;;;;4.52;64.18;103154.97;5055532;28;46993;-50
2022/01/14 08:09:48;;;;;;;;;63.00;49.50;;;;;4.51;64.19;103154.03;5060011;28;45382;-46
2022/01/14 08:12:14;;;;;;;;;64.25;50.00;;;;;4.51;64.21;103154.03;5060479;28;45331;-49
2022/01/14 08:14:40;;;;;;;;;65.75;51.00;;;;;4.52;64.34;103150.63;5054799;28;45573;-45
2022/01/14 08:17:06;;;;;;;;;54.75;41.75;;;;;4.47;64.10;103136.50;5056815;28;45406;-47
2022/01/14 08:19:33;;;;;;;;;60.50;49.50;;;;;4.54;64.51;103142.88;5038483;28;45325;-47
2022/01/14 08:22:00;;;;;;;;;60.25;49.75;;;;;4.51;64.02;103138.41;5053068;28;45428;-47
2022/01/14 08:24:26;;;;;;;;;62.25;48.75;;;;;4.56;64.29;103142.13;5060314;28;45372;-50
2022/01/14 08:26:51;;;;;;;;;63.75;51.75;;;;;4.56;64.48;103142.13;5053463;28;48350;-48
2022/01/14 08:29:17;;;;;;;;;59.50;47.00;;;;;4.55;64.23;103140.38;5060814;28;45433;-48
2022/01/14 08:31:42;;;;;;;;;63.00;49.00;;;;;4.60;64.47;103153.59;5044960;28;45406;-51
2022/01/14 08:34:08;;;;;;;;;60.25;50.00;;;;;4.62;64.28;103151.09;5060387;28;45301;-49
2022/01/14 08:36:33;;;;;;;;;65.25;51.25;;;;;4.61;64.08;103150.19;5060129;28;46069;-49
2022/01/14 08:38:59;;;;;;;;;62.25;49.50;;;;;4.67;64.59;103153.09;5059340;28;45181;-50
2022/01/14 08:41:29;;;;;;;;;65.75;51.00;;;;;4.69;64.52;103158.38;5060288;28;45538;-52
2022/01/14 08:43:56;;;;;;;;;61.50;49.25;;;;;4.73;64.64;103149.91;5059884;28;45584;-50
2022/01/14 08:46:21;;;;;;;;;52.75;44.50;;;;;4.76;64.65;103143.97;5060071;28;45505;-51
2022/01/14 08:48:47;;;;;;;;;63.75;48.00;;;;;4.79;64.43;103149.31;5059951;28;45446;-50
2022/01/14 08:51:12;;;;;;;;;66.00;50.00;;;;;4.83;64.52;103156.44;5059674;28;45345;-49
2022/01/14 08:53:37;;;;;;;;;68.00;51.75;;;;;4.86;64.78;103161.81;5059732;28;45363;-51
2022/01/14 08:56:03;;;;;;;;;70.75;56.75;;;;;4.91;64.65;103159.44;5051232;28;47286;-47
2022/01/14 08:58:28;;;;;;;;;71.25;56.00;;;;;4.95;64.69;103156.16;5037998;28;46392;-51
2022/01/14 09:00:54;;;;;;;;;68.00;51.25;;;;;5.00;64.84;103158.13;5059695;28;45454;-51
2022/01/14 09:03:19;;;;;;;;;71.75;55.00;;;;;5.07;64.66;103161.03;5055051;28;45274;-52
2022/01/14 09:05:44;;;;;;;;;67.00;52.00;;;;;5.10;64.58;103154.25;5059456;28;46862;-50
2022/01/14 09:08:10;;;;;;;;;59.25;46.00;;;;;5.19;64.68;103156.41;5054047;28;45212;-51
2022/01/14 09:10:35;;;;;;;;;63.75;49.25;;;;;5.25;64.81;103153.22;5058752;28;45465;-50
2022/01/14 09:13:01;;;;;;;;;69.75;55.50;;;;;5.29;64.62;103150.78;5055449;28;45591;-50
2022/01/14 09:15:26;;;;;;;;;66.50;53.25;;;;;5.35;64.65;103148.47;5044646;28;48202;-51
2022/01/14 09:17:52;;;;;;;;;70.25;55.25;;;;;5.42;64.76;103151.34;5059661;28;45322;-47
2022/01/14 09:20:17;;;;;;;;;72.25;55.50;;;;;5.50;64.57;103145.66;5059568;28;45901;-47
2022/01/14 09:22:48;;;;;;;;;75.25;55.25;;;;;5.56;64.74;103142.47;5051297;28;45471;-47
2022/01/14 09:25:15;;;;;;;;;72.00;54.25;;;;;5.64;64.84;103148.91;5057847;28;46063;-47
2022/01/14 09:27:40;;;;;;;;;70.50;55.00;;;;;5.71;64.93;103150.09;5067321;28;45391;-52
2022/01/14 09:30:06;;;;;;;;;67.75;50.50;;;;;5.79;64.99;103148.69;5059389;28;46451;-48
2022/01/14 09:32:32;;;;;;;;;73.25;56.75;;;;;5.86;65.00;103142.91;5059306;28;45162;-47
2022/01/14 09:35:02;;;;;;;;;70.75;56.75;;;;;5.95;65.13;103145.03;5051539;28;46071;-49
2022/01/14 09:37:28;;;;;;;;;73.00;57.25;;;;;6.02;65.14;103141.00;5059675;28;45407;-49
2022/01/14 09:39:53;;;;;;;;;68.00;54.50;;;;;6.13;64.95;103150.19;5051911;28;45907;-49
2022/01/14 09:42:19;;;;;;;;;72.50;56.00;;;;;6.21;65.21;103145.28;5059690;28;45451;-49
2022/01/14 09:44:44;;;;;;;;;72.00;55.75;;;;;6.29;64.88;103135.16;5058951;28;46312;-50
2022/01/14 09:47:16;;;;;;;;;66.75;54.00;;;;;6.38;65.02;103142.47;5059529;28;45342;-49
2022/01/14 09:49:43;;;;;;;;;61.25;47.75;;;;;6.48;65.21;103140.31;5043800;28;45404;-49
2022/01/14 09:52:08;;;;;;;;;71.75;55.00;;;;;6.58;64.92;103140.69;5059363;28;45328;-49
2022/01/14 09:54:34;;;;;;;;;75.25;55.50;;;;;6.68;65.02;103142.88;5058622;28;45353;-50
2022/01/14 09:56:59;;;;;;;;;69.50;52.50;;;;;6.77;65.15;103143.22;5052659;28;45366;-49
2022/01/14 09:59:25;;;;;;;;;69.00;54.00;;;;;6.89;65.11;103139.31;5059520;28;45301;-50
2022/01/14 10:01:50;;;;;;;;;72.25;57.00;;;;;6.98;65.13;103144.91;5059199;28;45283;-48
2022/01/14 10:04:21;;;;;;;;;73.75;55.75;;;;;7.09;65.17;103146.19;5059208;28;46248;-50
2022/01/14 10:06:53;;;;;;;;;71.50;55.25;;;;;7.20;65.23;103149.25;5058674;28;45468;-51
2022/01/14 10:09:22;;;;;;;;;66.00;49.50;;;;;7.30;65.29;103148.75;5055853;28;45521;-50
2022/01/14 10:11:59;;;;;;;;;67.75;52.00;;;;;7.42;65.26;103150.03;5058555;28;45429;-45
2022/01/14 10:14:24;;;;;;;;;65.25;51.25;;;;;7.54;65.19;103153.13;5063125;28;45454;-45
2022/01/14 10:16:58;;;;;;;;;64.50;49.00;;;;;7.65;65.30;103157.03;5055503;28;45465;-46
2022/01/14 10:19:29;;;;;;;;;61.00;48.25;;;;;7.77;65.08;103159.22;5054967;28;45310;-49
2022/01/14 10:21:56;;;;;;;;;64.25;50.00;;;;;7.91;65.00;103158.78;5058962;28;45477;-49
2022/01/14 10:24:29;;;;;;;;;71.00;50.25;;;;;7.95;65.09;103145.00;5058667;28;46964;-45
2022/01/14 10:26:58;;;;;;;;;65.00;52.25;;;;;8.13;64.96;103163.06;5063215;28;45461;-47
2022/01/14 10:29:38;;;;;;;;;65.00;48.75;;;;;8.24;65.05;103155.59;5056714;28;45365;-47
2022/01/14 10:32:06;;;;;;;;;62.75;50.00;;;;;8.33;64.81;103153.28;5065424;28;45446;-46
2022/01/14 10:34:31;;;;;;;;;69.75;56.25;;;;;8.42;65.04;103148.31;5054842;28;47212;-47
2022/01/14 10:37:14;;;;;;;;;65.00;51.25;;;;;8.57;64.91;103154.97;5065217;28;45387;-49
2022/01/14 10:39:46;;;;;;;;;61.75;46.50;;;;;8.63;65.05;103147.31;5064934;28;45483;-49
2022/01/14 10:42:34;;;;;;;;;58.25;48.25;;;;;8.74;65.14;103152.88;5064567;28;45931;-50
2022/01/14 10:45:25;;;;;;;;;59.00;47.00;;;;;8.86;65.06;103152.38;5057098;28;46514;-51
2022/01/14 10:48:03;;;;;;;;;61.00;47.00;;;;;8.94;64.75;103132.53;5058834;28;45571;-51
2022/01/14 10:50:30;;;;;;;;;60.75;48.25;;;;;9.05;64.83;103138.97;5064817;28;45475;-52
2022/01/14 10:52:56;;;;;;;;;63.50;49.50;;;;;9.16;65.00;103135.81;5064311;28;45447;-52
2022/01/14 10:55:29;;;;;;;;;63.25;47.50;;;;;9.24;64.71;103129.03;5064997;28;45474;-50
2022/01/14 10:57:54;;;;;;;;;60.50;47.50;;;;;9.34;64.49;103122.34;5058545;28;45327;-48
2022/01/14 11:00:20;;;;;;;;;53.75;44.50;;;;;9.41;64.54;103121.69;5065364;28;45398;-52
2022/01/14 11:02:48;;;;;;;;;58.75;45.25;;;;;9.52;64.39;103119.34;5064870;28;45318;-52
2022/01/14 11:05:16;;;;;;;;;58.25;45.25;;;;;9.62;64.40;103123.13;5057204;28;47038;-53
2022/01/14 11:07:43;;;;;;;;;54.00;42.00;;;;;9.70;64.56;103113.72;5056324;28;45261;-52
2022/01/14 11:10:18;;;;;;;;;59.25;46.50;;;;;9.82;64.50;103107.91;5057790;28;45405;-47
2022/01/14 11:12:44;;;;;;;;;55.00;44.50;;;;;9.89;64.42;103105.47;5058385;28;45449;-53
2022/01/14 11:15:11;;;;;;;;;55.50;43.25;;;;;9.99;64.27;103111.00;5063865;28;45327;-52
2022/01/14 11:17:38;;;;;;;;;54.25;44.00;;;;;10.07;64.06;103109.44;5061114;28;45498;-52
2022/01/14 11:20:07;;;;;;;;;53.25;43.75;;;;;10.19;64.02;103109.75;5056291;28;45477;-49
2022/01/14 11:25:18;;;;;;;;;54.75;44.50;;;;;10.42;64.01;103109.47;5067524;28;45798;-52
2022/01/14 11:27:54;;;;;;;;;53.50;43.00;;;;;10.53;63.85;103107.97;5066174;28;45442;-49
2022/01/14 11:30:19;;;;;;;;;58.25;44.25;;;;;10.63;63.82;103103.84;5064863;28;45468;-50
2022/01/14 11:32:56;;;;;;;;;54.25;44.00;;;;;10.71;63.59;103099.63;5063724;28;45479;-47
2022/01/14 11:35:23;;;;;;;;;55.25;42.50;;;;;10.82;63.77;103091.09;5059176;28;46475;-49
2022/01/14 11:37:49;;;;;;;;;53.50;38.00;;;;;10.88;63.42;103089.50;5044854;28;45317;-56